HBLVC LSZH-LSZH

Flight info

Callsign HBLVC
Flight time N/A
Altitude 7000
Route ZUE3V ZUE DCT KLO
Aircraft DA42/L-SBDFGLORVYZ/EB2

Departure

Time 2026-02-17 09:05
Airport Zürich Airport (LSZH)

Arrival

Time N/A
Airport Zürich Airport (LSZH)
Time Latitude Longitude Altitude Speed Heading
2026-02-17 08:47 47.45540 8.57267 1391 ft 0 kts 187°
2026-02-17 08:50 47.45540 8.57266 1391 ft 0 kts 187°
2026-02-17 08:50 47.45540 8.57267 1391 ft 0 kts 187°
2026-02-17 08:51 47.45538 8.57266 1391 ft 1 kts 187°
2026-02-17 08:52 47.45524 8.57259 1399 ft 3 kts 239°
2026-02-17 08:52 47.45516 8.57224 1391 ft 3 kts 248°
2026-02-17 08:52 47.45514 8.57193 1391 ft 4 kts 292°
2026-02-17 08:52 47.45524 8.57163 1395 ft 3 kts 293°
2026-02-17 08:53 47.45535 8.57141 1400 ft 2 kts 347°
2026-02-17 08:53 47.45549 8.57139 1392 ft 3 kts 320°
2026-02-17 08:53 47.45554 8.57106 1392 ft 3 kts 275°
2026-02-17 08:53 47.45552 8.57091 1392 ft 0 kts 234°
2026-02-17 09:03 47.45552 8.57084 1384 ft 3 kts 272°
2026-02-17 09:03 47.45585 8.57016 1394 ft 10 kts
2026-02-17 09:03 47.45658 8.57025 1392 ft 5 kts 328°
2026-02-17 09:04 47.45663 8.57010 1397 ft 0 kts 271°
2026-02-17 09:04 47.45671 8.56874 1393 ft 43 kts 276°
2026-02-17 09:04 47.45723 8.56157 1440 ft 86 kts 278°
2026-02-17 09:04 47.45795 8.55298 1843 ft 79 kts 272°
2026-02-17 09:05 47.45872 8.54550 2307 ft 75 kts 278°
2026-02-17 09:05 47.46001 8.53687 2576 ft 89 kts 279°
2026-02-17 09:05 47.46126 8.52815 3000 ft 84 kts 280°
2026-02-17 09:05 47.46238 8.51971 3343 ft 84 kts 279°
2026-02-17 09:06 47.46314 8.51116 3649 ft 84 kts 277°
2026-02-17 09:06 47.46338 8.50258 3993 ft 83 kts 272°
2026-02-17 09:06 47.46338 8.49405 4333 ft 83 kts 272°
2026-02-17 09:07 47.45841 8.47954 5000 ft 102 kts 210°
2026-02-17 09:07 47.45093 8.47896 5305 ft 111 kts 198°
2026-02-17 09:07 47.44491 8.47459 5624 ft 89 kts 248°
2026-02-17 09:07 47.44299 8.46636 5931 ft 86 kts 263°
2026-02-17 09:08 47.44135 8.45789 6259 ft 86 kts 264°
2026-02-17 09:08 47.43958 8.44938 6564 ft 89 kts 257°
2026-02-17 09:08 47.43414 8.44340 6867 ft 113 kts 207°
2026-02-17 09:08 47.42565 8.44494 7010 ft 142 kts 166°
2026-02-17 09:09 47.41782 8.45532 7009 ft 160 kts 122°
2026-02-17 09:09 47.41560 8.47016 7016 ft 138 kts 75°
2026-02-17 09:09 47.41937 8.48189 7014 ft 118 kts 29°
2026-02-17 09:09 47.42490 8.49075 7021 ft 117 kts 30°
2026-02-17 09:10 47.43049 8.49981 7027 ft 119 kts 38°
2026-02-17 09:10 47.43544 8.50980 7019 ft 121 kts 42°
2026-02-17 09:10 47.44023 8.51975 7022 ft 119 kts 39°
2026-02-17 09:11 47.45091 8.53709 7020 ft 108 kts 26°
2026-02-17 09:11 47.45638 8.54484 7020 ft 111 kts 36°
2026-02-17 09:11 47.46137 8.55351 7021 ft 111 kts 37°
2026-02-17 09:11 47.46618 8.56244 7023 ft 111 kts 38°
2026-02-17 09:12 47.47092 8.57159 7024 ft 113 kts 39°
2026-02-17 09:12 47.47566 8.58101 7024 ft 114 kts 40°
2026-02-17 09:12 47.48036 8.59047 7019 ft 113 kts 40°
2026-02-17 09:12 47.48506 8.59993 7025 ft 116 kts 41°
2026-02-17 09:13 47.48978 8.60951 7028 ft 116 kts 41°
2026-02-17 09:13 47.49457 8.61924 7029 ft 117 kts 41°
2026-02-17 09:13 47.49939 8.62902 7024 ft 118 kts 41°
2026-02-17 09:13 47.50423 8.63883 7020 ft 118 kts 41°
2026-02-17 09:14 47.50901 8.64853 7028 ft 117 kts 41°
2026-02-17 09:14 47.51377 8.65819 7033 ft 117 kts 41°
2026-02-17 09:14 47.51856 8.66794 7024 ft 117 kts 41°
2026-02-17 09:15 47.52818 8.68751 7025 ft 118 kts 41°
2026-02-17 09:15 47.53302 8.69733 7025 ft 118 kts 41°
2026-02-17 09:15 47.53786 8.70715 7024 ft 118 kts 41°
2026-02-17 09:15 47.54270 8.71700 7022 ft 118 kts 41°
2026-02-17 09:16 47.54758 8.72690 7013 ft 119 kts 41°
2026-02-17 09:16 47.55247 8.73688 7013 ft 119 kts 41°
2026-02-17 09:16 47.55735 8.74682 7010 ft 119 kts 41°
2026-02-17 09:16 47.56222 8.75671 7017 ft 119 kts 41°
2026-02-17 09:17 47.56709 8.76661 7015 ft 119 kts 41°
2026-02-17 09:17 47.57197 8.77654 7009 ft 120 kts 41°
2026-02-17 09:17 47.57687 8.78653 7008 ft 120 kts 41°
2026-02-17 09:17 47.58181 8.79652 7007 ft 120 kts 41°
2026-02-17 09:18 47.58663 8.80644 6964 ft 122 kts 41°
2026-02-17 09:18 47.59202 8.81725 6850 ft 138 kts 41°
2026-02-17 09:18 47.59848 8.82834 6721 ft 141 kts 24°
2026-02-17 09:19 47.61344 8.82343 6502 ft 120 kts 292°
2026-02-17 09:19 47.61314 8.81089 6385 ft 127 kts 262°
2026-02-17 09:19 47.61070 8.79813 6258 ft 129 kts 261°
2026-02-17 09:19 47.60905 8.78960 6173 ft 130 kts 261°
2026-02-17 09:20 47.60656 8.77668 6041 ft 131 kts 261°
2026-02-17 09:20 47.60468 8.75936 5864 ft 126 kts 285°
2026-02-17 09:20 47.60652 8.75108 5779 ft 125 kts 290°
2026-02-17 09:20 47.60931 8.73900 5646 ft 125 kts 289°
2026-02-17 09:21 47.61206 8.72673 5514 ft 125 kts 288°
2026-02-17 09:21 47.61478 8.71447 5384 ft 125 kts 288°
2026-02-17 09:21 47.61749 8.70217 5253 ft 125 kts 288°
2026-02-17 09:21 47.62020 8.68985 5121 ft 126 kts 287°
2026-02-17 09:22 47.62291 8.67749 5009 ft 125 kts 287°
2026-02-17 09:22 47.62552 8.66560 5009 ft 118 kts 287°
2026-02-17 09:22 47.62800 8.65430 5008 ft 113 kts 287°
2026-02-17 09:23 47.63275 8.63259 5008 ft 110 kts 287°
2026-02-17 09:23 47.63508 8.62199 5009 ft 109 kts 288°
2026-02-17 09:23 47.63744 8.61123 5006 ft 110 kts 288°
2026-02-17 09:23 47.63980 8.60050 5003 ft 107 kts 287°
2026-02-17 09:24 47.64214 8.59055 4995 ft 100 kts 288°
2026-02-17 09:24 47.64414 8.58077 5012 ft 100 kts 286°
2026-02-17 09:24 47.64613 8.57109 4966 ft 96 kts 279°
2026-02-17 09:24 47.64784 8.56152 4948 ft 95 kts 282°
2026-02-17 09:25 47.65045 8.55272 4957 ft 90 kts 290°
2026-02-17 09:25 47.65364 8.54462 4899 ft 94 kts 291°
2026-02-17 09:25 47.65681 8.53616 4844 ft 95 kts 288°
2026-02-17 09:25 47.65937 8.52729 4832 ft 91 kts 279°
2026-02-17 09:26 47.66129 8.51835 4744 ft 95 kts 278°
2026-02-17 09:26 47.66361 8.50921 4706 ft 95 kts 288°
2026-02-17 09:26 47.66589 8.50036 4813 ft 88 kts 285°
2026-02-17 09:27 47.67048 8.48304 4841 ft 94 kts 290°
2026-02-17 09:27 47.67324 8.47424 4885 ft 95 kts 290°
2026-02-17 09:27 47.67607 8.46509 4823 ft 101 kts 286°
2026-02-17 09:27 47.67890 8.45517 4725 ft 106 kts 283°
2026-02-17 09:28 47.68126 8.44481 4619 ft 106 kts 281°
2026-02-17 09:28 47.68337 8.43425 4445 ft 106 kts 277°
2026-02-17 09:28 47.68391 8.42346 4328 ft 107 kts 251°
2026-02-17 09:28 47.67864 8.41551 4258 ft 118 kts 210°
2026-02-17 09:29 47.67037 8.41147 4002 ft 130 kts 199°
2026-02-17 09:29 47.66146 8.40823 3817 ft 136 kts 186°
2026-02-17 09:29 47.65296 8.41303 3889 ft 130 kts 158°
2026-02-17 09:29 47.64519 8.41921 3901 ft 125 kts 160°
2026-02-17 09:30 47.62918 8.42896 3854 ft 121 kts 169°
2026-02-17 09:30 47.62123 8.43309 3911 ft 118 kts 165°
2026-02-17 09:31 47.60576 8.44357 3897 ft 123 kts 165°
2026-02-17 09:31 47.59780 8.44857 3877 ft 122 kts 164°
2026-02-17 09:31 47.59049 8.45416 3962 ft 118 kts 156°
2026-02-17 09:31 47.58328 8.46035 3929 ft 120 kts 158°
2026-02-17 09:32 47.57598 8.46690 3855 ft 128 kts 156°
2026-02-17 09:32 47.56809 8.47348 3804 ft 125 kts 160°
2026-02-17 09:32 47.56021 8.47881 3688 ft 124 kts 169°
2026-02-17 09:32 47.55232 8.48348 3656 ft 120 kts 165°
2026-02-17 09:33 47.54471 8.48828 3643 ft 116 kts 161°
2026-02-17 09:33 47.53740 8.49291 3587 ft 112 kts 163°
2026-02-17 09:33 47.53027 8.49782 3436 ft 117 kts 156°
2026-02-17 09:33 47.52296 8.50342 3190 ft 120 kts 158°
2026-02-17 09:34 47.51534 8.50873 2914 ft 123 kts 160°
2026-02-17 09:34 47.50747 8.51401 2579 ft 124 kts 156°
2026-02-17 09:34 47.49980 8.51952 2140 ft 121 kts 152°
2026-02-17 09:35 47.48589 8.52898 1674 ft 101 kts 154°
2026-02-17 09:35 47.47957 8.53316 1521 ft 98 kts 153°
2026-02-17 09:35 47.47361 8.53698 1560 ft 91 kts 156°
2026-02-17 09:35 47.46796 8.54103 1681 ft 89 kts 154°
2026-02-17 09:36 47.46237 8.54440 1824 ft 84 kts 161°
2026-02-17 09:36 47.45707 8.54744 1992 ft 79 kts 157°
2026-02-17 09:36 47.45204 8.55111 2034 ft 87 kts 159°
2026-02-17 09:36 47.44649 8.55472 2153 ft 88 kts 155°
2026-02-17 09:37 47.44152 8.56033 2255 ft 97 kts 135°
2026-02-17 09:37 47.43791 8.56864 2391 ft 99 kts 114°
2026-02-17 09:37 47.43579 8.57852 2484 ft 103 kts 94°
2026-02-17 09:37 47.43525 8.58884 2608 ft 103 kts 94°
2026-02-17 09:38 47.43565 8.59945 2702 ft 104 kts 78°
2026-02-17 09:38 47.43744 8.60987 2773 ft 104 kts 62°
2026-02-17 09:38 47.43961 8.62030 2769 ft 107 kts 66°
2026-02-17 09:39 47.44582 8.63993 3065 ft 110 kts 58°
2026-02-17 09:39 47.44834 8.65094 3220 ft 118 kts 81°
2026-02-17 09:39 47.45027 8.66278 3397 ft 118 kts 56°
2026-02-17 09:39 47.45577 8.67104 3523 ft 117 kts 27°
2026-02-17 09:40 47.46243 8.67840 3640 ft 119 kts 26°
2026-02-17 09:40 47.46907 8.68565 3792 ft 118 kts 26°
2026-02-17 09:40 47.47572 8.69278 3951 ft 119 kts 25°
2026-02-17 09:40 47.48248 8.70001 4108 ft 119 kts 25°
2026-02-17 09:41 47.48914 8.70713 4290 ft 117 kts 24°
2026-02-17 09:41 47.49572 8.71418 4457 ft 117 kts 24°
2026-02-17 09:41 47.50223 8.72112 4613 ft 117 kts 24°
2026-02-17 09:41 47.50883 8.72820 4771 ft 117 kts 24°
2026-02-17 09:42 47.51540 8.73525 4938 ft 116 kts 24°
2026-02-17 09:42 47.52208 8.74238 5014 ft 123 kts 24°
2026-02-17 09:42 47.52933 8.75012 5020 ft 133 kts 25°
2026-02-17 09:43 47.54493 8.76690 5017 ft 142 kts 26°
2026-02-17 09:43 47.55299 8.77554 5009 ft 144 kts 26°
2026-02-17 09:43 47.56174 8.78043 5013 ft 128 kts 346°
2026-02-17 09:43 47.56864 8.77473 5081 ft 107 kts 297°
2026-02-17 09:44 47.56872 8.76543 5428 ft 90 kts 249°
2026-02-17 09:44 47.56421 8.75860 5568 ft 95 kts 236°
2026-02-17 09:44 47.55978 8.75141 5661 ft 93 kts 245°
2026-02-17 09:44 47.55586 8.74377 5774 ft 93 kts 245°
2026-02-17 09:45 47.55195 8.73608 5893 ft 93 kts 245°
2026-02-17 09:45 47.54809 8.72840 6009 ft 94 kts 246°
2026-02-17 09:45 47.54399 8.72011 6017 ft 105 kts 245°
2026-02-17 09:45 47.53951 8.71106 6022 ft 112 kts 244°
2026-02-17 09:46 47.53481 8.70163 6025 ft 116 kts 244°
2026-02-17 09:46 47.53002 8.69203 6026 ft 119 kts 244°
2026-02-17 09:46 47.52511 8.68219 6029 ft 119 kts 244°
2026-02-17 09:47 47.51505 8.66191 6029 ft 125 kts 243°
2026-02-17 09:47 47.50988 8.65153 6025 ft 126 kts 243°
2026-02-17 09:47 47.50472 8.64112 6023 ft 126 kts 243°
2026-02-17 09:47 47.49967 8.63100 6025 ft 121 kts 243°
2026-02-17 09:48 47.49474 8.62115 6023 ft 118 kts 244°
2026-02-17 09:48 47.48989 8.61142 6023 ft 117 kts 244°
2026-02-17 09:48 47.48515 8.60188 6021 ft 116 kts 244°
2026-02-17 09:48 47.48035 8.59223 6024 ft 117 kts 244°
2026-02-17 09:49 47.47557 8.58262 6016 ft 114 kts 244°
2026-02-17 09:49 47.47090 8.57324 6018 ft 113 kts 244°
2026-02-17 09:49 47.46628 8.56396 6017 ft 111 kts 244°
2026-02-17 09:49 47.46172 8.55482 6018 ft 109 kts 244°
2026-02-17 09:50 47.45725 8.54587 6015 ft 108 kts 244°
2026-02-17 09:50 47.45122 8.53862 6022 ft 120 kts 216°
2026-02-17 09:50 47.44238 8.53735 6022 ft 139 kts 178°
2026-02-17 09:51 47.42606 8.55555 6018 ft 153 kts 132°
2026-02-17 09:51 47.42256 8.56994 6018 ft 153 kts 87°
2026-02-17 09:51 47.42561 8.58413 6019 ft 141 kts 41°
2026-02-17 09:51 47.43312 8.59112 6021 ft 120 kts 360°
2026-02-17 09:52 47.44092 8.59099 6026 ft 107 kts 334°
2026-02-17 09:52 47.44717 8.58609 6029 ft 99 kts 312°
2026-02-17 09:52 47.45113 8.57816 6035 ft 96 kts 292°
2026-02-17 09:52 47.45245 8.56844 6030 ft 99 kts 275°
2026-02-17 09:53 47.45272 8.55826 6031 ft 99 kts 280°
2026-02-17 09:53 47.45525 8.54897 6034 ft 99 kts 303°
2026-02-17 09:53 47.46060 8.54233 6032 ft 105 kts 326°
2026-02-17 09:53 47.46809 8.54025 6031 ft 118 kts 353°
2026-02-17 09:54 47.47613 8.54517 6033 ft 136 kts 29°
2026-02-17 09:54 47.48111 8.55792 6033 ft 154 kts 73°
2026-02-17 09:54 47.47966 8.57349 6038 ft 159 kts 118°
2026-02-17 09:55 47.46385 8.59517 6036 ft 155 kts 148°
2026-02-17 09:55 47.45548 8.60533 6025 ft 156 kts 145°
2026-02-17 09:55 47.44734 8.61584 6024 ft 154 kts 144°
2026-02-17 09:55 47.43867 8.62418 6019 ft 142 kts 175°
2026-02-17 09:56 47.42970 8.62336 6021 ft 121 kts 215°
2026-02-17 09:56 47.42351 8.61638 6030 ft 106 kts 244°
2026-02-17 09:56 47.42077 8.60688 6035 ft 97 kts 268°
2026-02-17 09:56 47.42124 8.59713 6026 ft 96 kts 288°
2026-02-17 09:57 47.42461 8.58872 6029 ft 98 kts 309°
2026-02-17 09:57 47.42978 8.58182 6032 ft 101 kts 312°
2026-02-17 09:57 47.43504 8.57482 6032 ft 103 kts 312°
2026-02-17 09:57 47.44040 8.56773 6029 ft 104 kts 312°
2026-02-17 09:58 47.44581 8.56057 6028 ft 104 kts 312°
2026-02-17 09:58 47.45118 8.55347 6027 ft 103 kts 312°
2026-02-17 09:58 47.45650 8.54643 6030 ft 102 kts 312°
2026-02-17 09:59 47.47039 8.54078 6035 ft 121 kts
2026-02-17 09:59 47.47790 8.54777 6028 ft 139 kts 40°
2026-02-17 09:59 47.48135 8.56172 6032 ft 154 kts 85°
2026-02-17 09:59 47.47811 8.57682 6027 ft 156 kts 130°
2026-02-17 10:00 47.47035 8.58730 6030 ft 151 kts 149°
2026-02-17 10:00 47.46209 8.59695 6032 ft 152 kts 147°
2026-02-17 10:00 47.45399 8.60715 6033 ft 153 kts 145°
2026-02-17 10:00 47.44592 8.61767 6027 ft 156 kts 144°
2026-02-17 10:01 47.43671 8.62479 6027 ft 144 kts 184°
2026-02-17 10:01 47.42779 8.62207 6034 ft 124 kts 223°
2026-02-17 10:01 47.42223 8.61350 6033 ft 111 kts 251°
2026-02-17 10:01 47.42057 8.60289 6029 ft 104 kts 276°
2026-02-17 10:02 47.42249 8.59289 6034 ft 102 kts 298°
2026-02-17 10:02 47.42725 8.58516 6035 ft 105 kts 312°
2026-02-17 10:02 47.43265 8.57798 6032 ft 103 kts 312°
2026-02-17 10:03 47.44307 8.56419 6025 ft 98 kts 312°
2026-02-17 10:03 47.44812 8.55752 6027 ft 96 kts 312°
2026-02-17 10:03 47.45304 8.55102 6024 ft 94 kts 312°
2026-02-17 10:03 47.45792 8.54460 6024 ft 93 kts 314°
2026-02-17 10:04 47.46388 8.54056 6027 ft 100 kts 337°
2026-02-17 10:04 47.47112 8.54110 6032 ft 111 kts
2026-02-17 10:04 47.47793 8.54785 6033 ft 128 kts 39°
2026-02-17 10:04 47.48126 8.56067 6023 ft 143 kts 83°
2026-02-17 10:05 47.48014 8.57029 6028 ft 145 kts 113°
2026-02-17 10:05 47.47384 8.58137 6032 ft 139 kts 158°
2026-02-17 10:05 47.46555 8.58853 6031 ft 140 kts 153°
2026-02-17 10:05 47.45774 8.59721 6030 ft 141 kts 148°
2026-02-17 10:06 47.45002 8.60643 6024 ft 142 kts 148°
2026-02-17 10:06 47.44232 8.61562 6027 ft 142 kts 148°
2026-02-17 10:06 47.43382 8.62083 6025 ft 125 kts 192°
2026-02-17 10:07 47.42388 8.60865 6032 ft 88 kts 268°
2026-02-17 10:07 47.42398 8.59986 6031 ft 85 kts 282°
2026-02-17 10:07 47.42569 8.59153 6034 ft 85 kts 292°
2026-02-17 10:07 47.42949 8.58467 6028 ft 88 kts 306°
2026-02-17 10:08 47.43368 8.57813 6032 ft 90 kts 309°
2026-02-17 10:08 47.43831 8.57195 6031 ft 90 kts 311°
2026-02-17 10:08 47.44300 8.56570 6030 ft 91 kts 311°
2026-02-17 10:08 47.44770 8.55945 6031 ft 91 kts 311°
2026-02-17 10:09 47.45253 8.55297 6031 ft 103 kts 311°
2026-02-17 10:09 47.45832 8.54521 6033 ft 121 kts 313°
2026-02-17 10:09 47.46480 8.53644 6031 ft 131 kts 312°
2026-02-17 10:09 47.47173 8.52717 6032 ft 137 kts 313°
2026-02-17 10:10 47.47898 8.51770 6032 ft 140 kts 314°
2026-02-17 10:10 47.48644 8.50818 6035 ft 142 kts 314°
2026-02-17 10:10 47.49389 8.49842 6023 ft 143 kts 313°
2026-02-17 10:11 47.50790 8.47745 6037 ft 140 kts 309°
2026-02-17 10:11 47.51461 8.46730 6055 ft 139 kts 313°
2026-02-17 10:11 47.52204 8.45791 6103 ft 138 kts 317°
2026-02-17 10:11 47.52993 8.44949 5989 ft 144 kts 319°
2026-02-17 10:12 47.53782 8.44086 6109 ft 138 kts 313°
2026-02-17 10:12 47.54481 8.43086 6066 ft 144 kts 310°
2026-02-17 10:12 47.55213 8.42015 5887 ft 150 kts 312°
2026-02-17 10:12 47.55965 8.40936 5830 ft 151 kts 312°
2026-02-17 10:13 47.56710 8.39837 5730 ft 152 kts 309°
2026-02-17 10:13 47.57443 8.38700 5557 ft 156 kts 310°
2026-02-17 10:13 47.58237 8.37579 5332 ft 159 kts 313°
2026-02-17 10:13 47.59082 8.36502 5161 ft 159 kts 315°
2026-02-17 10:14 47.59965 8.35550 5156 ft 158 kts 326°
2026-02-17 10:14 47.61036 8.35118 5103 ft 167 kts 349°
2026-02-17 10:14 47.62247 8.35378 4828 ft 184 kts
2026-02-17 10:15 47.64405 8.37682 4402 ft 204 kts 53°
2026-02-17 10:15 47.64862 8.39702 4084 ft 213 kts 83°
2026-02-17 10:15 47.64594 8.41779 4034 ft 200 kts 122°
2026-02-17 10:15 47.63623 8.43113 3996 ft 189 kts 160°
2026-02-17 10:16 47.62412 8.43799 3896 ft 185 kts 171°
2026-02-17 10:16 47.61225 8.44417 3987 ft 176 kts 164°
2026-02-17 10:16 47.60108 8.45128 3929 ft 175 kts 163°
2026-02-17 10:16 47.59003 8.45875 3937 ft 176 kts 162°
2026-02-17 10:17 47.57861 8.46613 3750 ft 177 kts 165°
2026-02-17 10:17 47.56747 8.47311 3542 ft 172 kts 164°
2026-02-17 10:17 47.55662 8.47988 3277 ft 170 kts 165°
2026-02-17 10:17 47.54574 8.48614 3098 ft 165 kts 166°
2026-02-17 10:18 47.53539 8.49340 2914 ft 164 kts 156°
2026-02-17 10:18 47.52576 8.50194 2752 ft 158 kts 155°
2026-02-17 10:18 47.51603 8.50883 2573 ft 151 kts 163°
2026-02-17 10:19 47.49745 8.52098 2375 ft 139 kts 158°
2026-02-17 10:19 47.49068 8.53114 2371 ft 137 kts 136°
2026-02-17 10:19 47.48468 8.54153 2401 ft 131 kts 140°
2026-02-17 10:19 47.47850 8.55099 2431 ft 126 kts 139°
2026-02-17 10:20 47.47256 8.56089 2354 ft 129 kts 134°
2026-02-17 10:20 47.47070 8.56408 2324 ft 124 kts 134°